Terminal Aerodrome Forecast
Issued by NWS Detroit/Pontiac, MI

Home | Current Version | Previous Version | Text Only | Print | Product List | Glossary On
Versions: 1 2 3 4 5 6 7 8 9 10 11 12 13 14 15 16 17 18 19 20 21 22 23 24 25 26 27 28
433
FTUS43 KDTX 182115 AAA
TAFDTW
TAF AMD
KDTW 182115Z 1821/1924 24008KT P6SM BKN012 OVC025
     FM182300 23007KT P6SM OVC012
     FM190600 21005KT 5SM BR BKN008
     FM190900 21004KT 2SM BR BKN004
     FM191500 20006KT 4SM BR BKN007
     FM191800 17005KT P6SM SCT012=

USA.gov is the U.S. government's official web portal to all federal, state and local government web resources and services.